sensor_id;sensor_type;location;lat;lon;timestamp;temperature;humidity
51305;HTU21D;37392;50.964;6.952;2023-09-08T00:02:05;19.46;88.03
51305;HTU21D;37392;50.964;6.952;2023-09-08T00:04:30;19.41;88.11
51305;HTU21D;37392;50.964;6.952;2023-09-08T00:06:57;19.39;88.47
51305;HTU21D;37392;50.964;6.952;2023-09-08T00:09:23;19.31;88.59
51305;HTU21D;37392;50.964;6.952;2023-09-08T00:11:49;19.35;88.47
51305;HTU21D;37392;50.964;6.952;2023-09-08T00:14:14;19.31;88.56
51305;HTU21D;37392;50.964;6.952;2023-09-08T00:16:39;19.35;88.38
51305;HTU21D;37392;50.964;6.952;2023-09-08T00:19:08;19.41;88.32
51305;HTU21D;37392;50.964;6.952;2023-09-08T00:21:34;19.32;88.57
51305;HTU21D;37392;50.964;6.952;2023-09-08T00:24:01;19.31;88.64
51305;HTU21D;37392;50.964;6.952;2023-09-08T00:26:26;19.35;88.67
51305;HTU21D;37392;50.964;6.952;2023-09-08T00:28:52;19.29;88.84
51305;HTU21D;37392;50.964;6.952;2023-09-08T00:31:17;19.21;89.05
51305;HTU21D;37392;50.964;6.952;2023-09-08T00:33:42;19.20;89.26
51305;HTU21D;37392;50.964;6.952;2023-09-08T00:36:09;19.18;89.30
51305;HTU21D;37392;50.964;6.952;2023-09-08T00:38:35;19.10;89.76
51305;HTU21D;37392;50.964;6.952;2023-09-08T00:41:00;19.09;89.86
51305;HTU21D;37392;50.964;6.952;2023-09-08T00:43:26;19.07;90.19
51305;HTU21D;37392;50.964;6.952;2023-09-08T00:45:51;19.09;90.13
51305;HTU21D;37392;50.964;6.952;2023-09-08T00:48:17;19.05;90.30
51305;HTU21D;37392;50.964;6.952;2023-09-08T00:50:43;19.02;90.62
51305;HTU21D;37392;50.964;6.952;2023-09-08T00:53:09;18.98;90.82
51305;HTU21D;37392;50.964;6.952;2023-09-08T00:55:34;18.94;91.07
51305;HTU21D;37392;50.964;6.952;2023-09-08T00:58:00;18.87;91.26
51305;HTU21D;37392;50.964;6.952;2023-09-08T01:00:27;18.93;91.34
51305;HTU21D;37392;50.964;6.952;2023-09-08T01:02:52;18.86;91.25
51305;HTU21D;37392;50.964;6.952;2023-09-08T01:05:18;18.77;91.59
51305;HTU21D;37392;50.964;6.952;2023-09-08T01:07:44;18.66;92.09
51305;HTU21D;37392;50.964;6.952;2023-09-08T01:10:10;18.65;92.37
51305;HTU21D;37392;50.964;6.952;2023-09-08T01:12:35;18.55;92.60
51305;HTU21D;37392;50.964;6.952;2023-09-08T01:15:01;18.58;92.53
51305;HTU21D;37392;50.964;6.952;2023-09-08T01:17:27;18.53;92.92
51305;HTU21D;37392;50.964;6.952;2023-09-08T01:19:54;18.50;93.09
51305;HTU21D;37392;50.964;6.952;2023-09-08T01:22:21;18.53;93.27
51305;HTU21D;37392;50.964;6.952;2023-09-08T01:27:33;18.41;93.83
51305;HTU21D;37392;50.964;6.952;2023-09-08T01:29:59;18.33;94.34
51305;HTU21D;37392;50.964;6.952;2023-09-08T01:32:25;18.27;94.69
51305;HTU21D;37392;50.964;6.952;2023-09-08T01:34:51;18.28;94.94
51305;HTU21D;37392;50.964;6.952;2023-09-08T01:37:16;18.22;95.23
51305;HTU21D;37392;50.964;6.952;2023-09-08T01:39:42;18.21;95.46
51305;HTU21D;37392;50.964;6.952;2023-09-08T01:42:07;18.14;95.65
51305;HTU21D;37392;50.964;6.952;2023-09-08T01:44:33;18.17;95.81
51305;HTU21D;37392;50.964;6.952;2023-09-08T01:46:58;18.12;95.90
51305;HTU21D;37392;50.964;6.952;2023-09-08T01:49:24;18.05;96.36
51305;HTU21D;37392;50.964;6.952;2023-09-08T01:51:49;18.03;96.55
51305;HTU21D;37392;50.964;6.952;2023-09-08T01:54:15;18.05;96.67
51305;HTU21D;37392;50.964;6.952;2023-09-08T01:56:41;18.09;96.60
51305;HTU21D;37392;50.964;6.952;2023-09-08T01:59:06;18.09;96.54
51305;HTU21D;37392;50.964;6.952;2023-09-08T02:01:32;18.04;96.73
51305;HTU21D;37392;50.964;6.952;2023-09-08T02:03:57;18.03;96.75
51305;HTU21D;37392;50.964;6.952;2023-09-08T02:06:22;17.98;96.78
51305;HTU21D;37392;50.964;6.952;2023-09-08T02:08:48;17.98;96.83
51305;HTU21D;37392;50.964;6.952;2023-09-08T02:11:13;17.95;96.83
51305;HTU21D;37392;50.964;6.952;2023-09-08T02:13:41;18.03;96.50
51305;HTU21D;37392;50.964;6.952;2023-09-08T02:16:07;18.00;96.42
51305;HTU21D;37392;50.964;6.952;2023-09-08T02:18:33;18.10;96.01
51305;HTU21D;37392;50.964;6.952;2023-09-08T02:20:58;18.05;96.23
51305;HTU21D;37392;50.964;6.952;2023-09-08T02:23:23;18.00;96.24
51305;HTU21D;37392;50.964;6.952;2023-09-08T02:25:49;17.90;96.69
51305;HTU21D;37392;50.964;6.952;2023-09-08T02:28:14;17.83;97.05
51305;HTU21D;37392;50.964;6.952;2023-09-08T02:30:40;17.84;97.33
51305;HTU21D;37392;50.964;6.952;2023-09-08T02:33:05;17.70;97.78
51305;HTU21D;37392;50.964;6.952;2023-09-08T02:35:35;17.64;98.46
51305;HTU21D;37392;50.964;6.952;2023-09-08T02:38:01;17.54;98.80
51305;HTU21D;37392;50.964;6.952;2023-09-08T02:40:27;17.60;98.82
51305;HTU21D;37392;50.964;6.952;2023-09-08T02:42:52;17.64;98.90
51305;HTU21D;37392;50.964;6.952;2023-09-08T02:45:17;17.59;98.88
51305;HTU21D;37392;50.964;6.952;2023-09-08T02:47:43;17.52;99.11
51305;HTU21D;37392;50.964;6.952;2023-09-08T02:50:08;17.51;99.40
51305;HTU21D;37392;50.964;6.952;2023-09-08T02:52:34;17.51;99.38
51305;HTU21D;37392;50.964;6.952;2023-09-08T02:54:59;17.49;99.51
51305;HTU21D;37392;50.964;6.952;2023-09-08T02:57:25;17.46;99.69
51305;HTU21D;37392;50.964;6.952;2023-09-08T02:59:51;17.41;99.90
51305;HTU21D;37392;50.964;6.952;2023-09-08T03:02:17;17.41;100.19
51305;HTU21D;37392;50.964;6.952;2023-09-08T03:04:42;17.43;100.26
51305;HTU21D;37392;50.964;6.952;2023-09-08T03:07:08;17.36;100.32
51305;HTU21D;37392;50.964;6.952;2023-09-08T03:09:33;17.28;100.73
51305;HTU21D;37392;50.964;6.952;2023-09-08T03:11:59;17.18;101.05
51305;HTU21D;37392;50.964;6.952;2023-09-08T03:14:25;17.18;101.31
51305;HTU21D;37392;50.964;6.952;2023-09-08T03:16:50;17.14;101.44
51305;HTU21D;37392;50.964;6.952;2023-09-08T03:19:15;17.16;101.41
51305;HTU21D;37392;50.964;6.952;2023-09-08T03:21:41;17.07;101.34
51305;HTU21D;37392;50.964;6.952;2023-09-08T03:24:06;17.02;101.52
51305;HTU21D;37392;50.964;6.952;2023-09-08T03:26:32;16.92;101.86
51305;HTU21D;37392;50.964;6.952;2023-09-08T03:28:57;16.90;102.22
51305;HTU21D;37392;50.964;6.952;2023-09-08T03:31:22;16.92;101.93
51305;HTU21D;37392;50.964;6.952;2023-09-08T03:33:48;16.86;101.82
51305;HTU21D;37392;50.964;6.952;2023-09-08T03:36:13;16.86;101.85
51305;HTU21D;37392;50.964;6.952;2023-09-08T03:38:39;16.85;101.77
51305;HTU21D;37392;50.964;6.952;2023-09-08T03:41:06;16.84;101.80
51305;HTU21D;37392;50.964;6.952;2023-09-08T03:43:31;16.80;101.85
51305;HTU21D;37392;50.964;6.952;2023-09-08T03:45:57;16.71;102.19
51305;HTU21D;37392;50.964;6.952;2023-09-08T03:48:22;16.66;102.41
51305;HTU21D;37392;50.964;6.952;2023-09-08T03:50:47;16.63;102.54
51305;HTU21D;37392;50.964;6.952;2023-09-08T03:53:13;16.71;102.48
51305;HTU21D;37392;50.964;6.952;2023-09-08T03:55:38;16.72;102.49
51305;HTU21D;37392;50.964;6.952;2023-09-08T03:58:04;16.75;102.02
51305;HTU21D;37392;50.964;6.952;2023-09-08T04:00:29;16.75;101.86
51305;HTU21D;37392;50.964;6.952;2023-09-08T04:02:55;16.82;101.81
51305;HTU21D;37392;50.964;6.952;2023-09-08T04:05:20;16.79;101.72
51305;HTU21D;37392;50.964;6.952;2023-09-08T04:07:46;16.80;101.71
51305;HTU21D;37392;50.964;6.952;2023-09-08T04:10:11;16.81;101.58
51305;HTU21D;37392;50.964;6.952;2023-09-08T04:12:38;16.78;101.57
51305;HTU21D;37392;50.964;6.952;2023-09-08T04:15:06;16.72;101.53
51305;HTU21D;37392;50.964;6.952;2023-09-08T04:17:32;16.80;101.32
51305;HTU21D;37392;50.964;6.952;2023-09-08T04:19:58;16.78;101.20
51305;HTU21D;37392;50.964;6.952;2023-09-08T04:22:24;16.84;100.74
51305;HTU21D;37392;50.964;6.952;2023-09-08T04:24:49;16.96;100.03
51305;HTU21D;37392;50.964;6.952;2023-09-08T04:27:15;17.11;99.09
51305;HTU21D;37392;50.964;6.952;2023-09-08T04:29:40;17.19;98.30
51305;HTU21D;37392;50.964;6.952;2023-09-08T04:32:06;17.30;97.75
51305;HTU21D;37392;50.964;6.952;2023-09-08T04:34:35;17.23;97.75
51305;HTU21D;37392;50.964;6.952;2023-09-08T04:37:04;17.31;97.33
51305;HTU21D;37392;50.964;6.952;2023-09-08T04:39:30;17.35;96.98
51305;HTU21D;37392;50.964;6.952;2023-09-08T04:41:55;17.40;96.77
51305;HTU21D;37392;50.964;6.952;2023-09-08T04:44:20;17.38;96.57
51305;HTU21D;37392;50.964;6.952;2023-09-08T04:46:46;17.40;96.62
51305;HTU21D;37392;50.964;6.952;2023-09-08T04:49:11;17.35;96.49
51305;HTU21D;37392;50.964;6.952;2023-09-08T04:51:37;17.38;96.26
51305;HTU21D;37392;50.964;6.952;2023-09-08T04:54:02;17.39;96.36
51305;HTU21D;37392;50.964;6.952;2023-09-08T04:56:28;17.39;96.14
51305;HTU21D;37392;50.964;6.952;2023-09-08T04:58:53;17.35;96.36
51305;HTU21D;37392;50.964;6.952;2023-09-08T05:01:20;17.31;96.39
51305;HTU21D;37392;50.964;6.952;2023-09-08T05:03:45;17.32;96.36
51305;HTU21D;37392;50.964;6.952;2023-09-08T05:06:11;17.34;96.23
51305;HTU21D;37392;50.964;6.952;2023-09-08T05:08:36;17.45;95.84
51305;HTU21D;37392;50.964;6.952;2023-09-08T05:11:02;17.47;95.57
51305;HTU21D;37392;50.964;6.952;2023-09-08T05:13:27;17.49;95.44
51305;HTU21D;37392;50.964;6.952;2023-09-08T05:15:53;17.51;95.44
51305;HTU21D;37392;50.964;6.952;2023-09-08T05:18:25;17.52;95.37
51305;HTU21D;37392;50.964;6.952;2023-09-08T05:20:52;17.52;95.36
51305;HTU21D;37392;50.964;6.952;2023-09-08T05:23:17;17.50;95.56
51305;HTU21D;37392;50.964;6.952;2023-09-08T05:25:42;17.59;95.33
51305;HTU21D;37392;50.964;6.952;2023-09-08T05:28:08;17.85;95.03
51305;HTU21D;37392;50.964;6.952;2023-09-08T05:30:33;18.53;92.63
51305;HTU21D;37392;50.964;6.952;2023-09-08T05:32:59;19.29;89.07
51305;HTU21D;37392;50.964;6.952;2023-09-08T05:35:24;19.98;86.19
51305;HTU21D;37392;50.964;6.952;2023-09-08T05:37:50;20.58;83.51
51305;HTU21D;37392;50.964;6.952;2023-09-08T05:40:15;21.17;81.34
51305;HTU21D;37392;50.964;6.952;2023-09-08T05:42:41;21.51;79.75
51305;HTU21D;37392;50.964;6.952;2023-09-08T05:45:06;21.97;77.76
51305;HTU21D;37392;50.964;6.952;2023-09-08T05:47:32;22.52;76.12
51305;HTU21D;37392;50.964;6.952;2023-09-08T05:49:57;22.77;74.39
51305;HTU21D;37392;50.964;6.952;2023-09-08T05:52:22;23.08;73.42
51305;HTU21D;37392;50.964;6.952;2023-09-08T05:54:48;23.22;72.44
51305;HTU21D;37392;50.964;6.952;2023-09-08T05:57:13;23.68;71.09
51305;HTU21D;37392;50.964;6.952;2023-09-08T05:59:39;24.11;69.05
51305;HTU21D;37392;50.964;6.952;2023-09-08T06:02:04;24.21;68.67
51305;HTU21D;37392;50.964;6.952;2023-09-08T06:04:30;24.64;67.67
51305;HTU21D;37392;50.964;6.952;2023-09-08T06:06:57;24.95;66.66
51305;HTU21D;37392;50.964;6.952;2023-09-08T06:09:23;25.24;65.48
51305;HTU21D;37392;50.964;6.952;2023-09-08T06:11:48;25.32;64.82
51305;HTU21D;37392;50.964;6.952;2023-09-08T06:14:14;25.50;64.26
51305;HTU21D;37392;50.964;6.952;2023-09-08T06:16:39;25.77;63.65
51305;HTU21D;37392;50.964;6.952;2023-09-08T06:19:05;26.39;62.41
51305;HTU21D;37392;50.964;6.952;2023-09-08T06:21:30;26.77;60.92
51305;HTU21D;37392;50.964;6.952;2023-09-08T06:23:56;26.68;60.80
51305;HTU21D;37392;50.964;6.952;2023-09-08T06:26:22;26.82;60.31
51305;HTU21D;37392;50.964;6.952;2023-09-08T06:28:48;27.06;59.48
51305;HTU21D;37392;50.964;6.952;2023-09-08T06:31:13;27.17;59.16
51305;HTU21D;37392;50.964;6.952;2023-09-08T06:33:39;27.36;58.37
51305;HTU21D;37392;50.964;6.952;2023-09-08T06:36:05;27.13;58.70
51305;HTU21D;37392;50.964;6.952;2023-09-08T06:38:32;27.14;58.85
51305;HTU21D;37392;50.964;6.952;2023-09-08T06:40:57;27.17;58.53
51305;HTU21D;37392;50.964;6.952;2023-09-08T06:43:24;26.89;58.93
51305;HTU21D;37392;50.964;6.952;2023-09-08T06:45:49;27.23;58.34
51305;HTU21D;37392;50.964;6.952;2023-09-08T06:48:15;27.58;57.76
51305;HTU21D;37392;50.964;6.952;2023-09-08T06:50:41;27.83;57.04
51305;HTU21D;37392;50.964;6.952;2023-09-08T06:53:06;28.12;56.70
51305;HTU21D;37392;50.964;6.952;2023-09-08T06:55:32;28.75;55.18
51305;HTU21D;37392;50.964;6.952;2023-09-08T06:57:57;28.98;54.33
51305;HTU21D;37392;50.964;6.952;2023-09-08T07:00:23;29.04;54.08
51305;HTU21D;37392;50.964;6.952;2023-09-08T07:02:48;29.35;53.66
51305;HTU21D;37392;50.964;6.952;2023-09-08T07:05:17;29.36;53.23
51305;HTU21D;37392;50.964;6.952;2023-09-08T07:07:42;29.07;53.59
51305;HTU21D;37392;50.964;6.952;2023-09-08T07:10:08;29.29;53.36
51305;HTU21D;37392;50.964;6.952;2023-09-08T07:12:34;29.57;52.90
51305;HTU21D;37392;50.964;6.952;2023-09-08T07:14:59;29.59;53.01
51305;HTU21D;37392;50.964;6.952;2023-09-08T07:17:25;29.71;52.52
51305;HTU21D;37392;50.964;6.952;2023-09-08T07:19:50;30.17;51.57
51305;HTU21D;37392;50.964;6.952;2023-09-08T07:22:16;30.44;51.04
51305;HTU21D;37392;50.964;6.952;2023-09-08T07:24:42;30.44;51.24
51305;HTU21D;37392;50.964;6.952;2023-09-08T07:27:07;30.70;50.20
51305;HTU21D;37392;50.964;6.952;2023-09-08T07:29:33;30.85;50.21
51305;HTU21D;37392;50.964;6.952;2023-09-08T07:31:58;30.62;49.99
51305;HTU21D;37392;50.964;6.952;2023-09-08T07:34:24;30.57;50.58
51305;HTU21D;37392;50.964;6.952;2023-09-08T07:36:50;30.55;50.56
51305;HTU21D;37392;50.964;6.952;2023-09-08T07:39:15;30.71;50.11
51305;HTU21D;37392;50.964;6.952;2023-09-08T07:41:41;30.78;50.03
51305;HTU21D;37392;50.964;6.952;2023-09-08T07:44:06;31.07;49.70
51305;HTU21D;37392;50.964;6.952;2023-09-08T07:46:32;31.79;48.41
51305;HTU21D;37392;50.964;6.952;2023-09-08T07:48:58;31.55;48.16
51305;HTU21D;37392;50.964;6.952;2023-09-08T07:51:24;31.49;48.26
51305;HTU21D;37392;50.964;6.952;2023-09-08T07:53:50;31.58;48.44
51305;HTU21D;37392;50.964;6.952;2023-09-08T07:56:15;31.58;47.97
51305;HTU21D;37392;50.964;6.952;2023-09-08T07:58:41;31.87;48.07
51305;HTU21D;37392;50.964;6.952;2023-09-08T08:01:06;32.28;47.10
51305;HTU21D;37392;50.964;6.952;2023-09-08T08:03:32;32.54;46.60
51305;HTU21D;37392;50.964;6.952;2023-09-08T08:05:59;32.84;45.95
51305;HTU21D;37392;50.964;6.952;2023-09-08T08:08:25;32.70;45.77
51305;HTU21D;37392;50.964;6.952;2023-09-08T08:10:50;32.35;46.25
51305;HTU21D;37392;50.964;6.952;2023-09-08T08:13:16;32.47;46.79
51305;HTU21D;37392;50.964;6.952;2023-09-08T08:15:41;32.69;46.12
51305;HTU21D;37392;50.964;6.952;2023-09-08T08:18:07;33.05;45.57
51305;HTU21D;37392;50.964;6.952;2023-09-08T08:20:35;33.07;45.42
51305;HTU21D;37392;50.964;6.952;2023-09-08T08:23:01;33.09;45.33
51305;HTU21D;37392;50.964;6.952;2023-09-08T08:25:27;33.23;45.24
51305;HTU21D;37392;50.964;6.952;2023-09-08T08:27:53;33.27;44.99
51305;HTU21D;37392;50.964;6.952;2023-09-08T08:30:18;33.22;45.04
51305;HTU21D;37392;50.964;6.952;2023-09-08T08:32:43;33.48;45.24
51305;HTU21D;37392;50.964;6.952;2023-09-08T08:35:09;33.92;44.01
51305;HTU21D;37392;50.964;6.952;2023-09-08T08:37:35;34.04;43.69
51305;HTU21D;37392;50.964;6.952;2023-09-08T08:40:00;34.14;43.61
51305;HTU21D;37392;50.964;6.952;2023-09-08T08:42:32;34.01;44.09
51305;HTU21D;37392;50.964;6.952;2023-09-08T08:44:58;34.59;43.03
51305;HTU21D;37392;50.964;6.952;2023-09-08T08:47:24;34.81;42.38
51305;HTU21D;37392;50.964;6.952;2023-09-08T08:49:51;34.71;42.32
51305;HTU21D;37392;50.964;6.952;2023-09-08T08:52:18;35.05;42.04
51305;HTU21D;37392;50.964;6.952;2023-09-08T08:54:44;34.85;42.18
51305;HTU21D;37392;50.964;6.952;2023-09-08T08:57:11;34.97;41.99
51305;HTU21D;37392;50.964;6.952;2023-09-08T08:59:37;35.42;41.47
51305;HTU21D;37392;50.964;6.952;2023-09-08T09:02:02;36.15;40.18
51305;HTU21D;37392;50.964;6.952;2023-09-08T09:04:28;36.23;40.18
51305;HTU21D;37392;50.964;6.952;2023-09-08T09:06:55;35.85;40.80
51305;HTU21D;37392;50.964;6.952;2023-09-08T09:09:20;36.22;40.11
51305;HTU21D;37392;50.964;6.952;2023-09-08T09:11:46;36.37;39.93
51305;HTU21D;37392;50.964;6.952;2023-09-08T09:14:11;37.04;39.18
51305;HTU21D;37392;50.964;6.952;2023-09-08T09:16:41;37.65;38.04
51305;HTU21D;37392;50.964;6.952;2023-09-08T09:19:07;37.85;37.68
51305;HTU21D;37392;50.964;6.952;2023-09-08T09:21:43;38.19;36.95
51305;HTU21D;37392;50.964;6.952;2023-09-08T09:24:14;37.90;36.94
51305;HTU21D;37392;50.964;6.952;2023-09-08T09:26:40;37.67;37.27
51305;HTU21D;37392;50.964;6.952;2023-09-08T09:29:12;37.73;37.36
51305;HTU21D;37392;50.964;6.952;2023-09-08T09:32:24;37.63;37.23
51305;HTU21D;37392;50.964;6.952;2023-09-08T09:34:28;38.10;36.87
51305;HTU21D;37392;50.964;6.952;2023-09-08T09:36:53;38.59;36.84
51305;HTU21D;37392;50.964;6.952;2023-09-08T09:39:22;38.93;36.09
51305;HTU21D;37392;50.964;6.952;2023-09-08T09:41:49;39.07;35.77
51305;HTU21D;37392;50.964;6.952;2023-09-08T09:44:18;38.33;36.59
51305;HTU21D;37392;50.964;6.952;2023-09-08T09:46:44;38.34;36.86
51305;HTU21D;37392;50.964;6.952;2023-09-08T09:49:11;38.30;36.69
51305;HTU21D;37392;50.964;6.952;2023-09-08T09:51:48;37.87;37.50
51305;HTU21D;37392;50.964;6.952;2023-09-08T09:54:16;38.02;37.15
51305;HTU21D;37392;50.964;6.952;2023-09-08T09:56:41;38.61;36.53
51305;HTU21D;37392;50.964;6.952;2023-09-08T09:59:10;38.76;36.50
51305;HTU21D;37392;50.964;6.952;2023-09-08T10:01:37;39.00;36.58
51305;HTU21D;37392;50.964;6.952;2023-09-08T10:04:04;39.12;35.87
51305;HTU21D;37392;50.964;6.952;2023-09-08T10:06:36;38.97;35.94
51305;HTU21D;37392;50.964;6.952;2023-09-08T10:09:04;38.96;36.18
51305;HTU21D;37392;50.964;6.952;2023-09-08T10:11:34;39.15;35.95
51305;HTU21D;37392;50.964;6.952;2023-09-08T10:14:02;39.62;35.21
51305;HTU21D;37392;50.964;6.952;2023-09-08T10:16:27;39.64;35.19
51305;HTU21D;37392;50.964;6.952;2023-09-08T10:18:54;39.40;35.07
51305;HTU21D;37392;50.964;6.952;2023-09-08T10:21:23;39.15;35.69
51305;HTU21D;37392;50.964;6.952;2023-09-08T10:23:54;38.83;36.05
51305;HTU21D;37392;50.964;6.952;2023-09-08T10:26:24;38.35;36.40
51305;HTU21D;37392;50.964;6.952;2023-09-08T10:28:51;38.33;36.73
51305;HTU21D;37392;50.964;6.952;2023-09-08T10:31:21;38.40;36.71
51305;HTU21D;37392;50.964;6.952;2023-09-08T10:33:51;38.68;36.92
51305;HTU21D;37392;50.964;6.952;2023-09-08T10:36:17;39.09;36.34
51305;HTU21D;37392;50.964;6.952;2023-09-08T10:38:42;39.21;35.98
51305;HTU21D;37392;50.964;6.952;2023-09-08T10:43:54;39.51;35.87
51305;HTU21D;37392;50.964;6.952;2023-09-08T10:46:28;40.18;34.60
51305;HTU21D;37392;50.964;6.952;2023-09-08T10:48:54;39.93;34.84
51305;HTU21D;37392;50.964;6.952;2023-09-08T10:51:21;39.36;35.31
51305;HTU21D;37392;50.964;6.952;2023-09-08T10:53:48;39.38;35.72
51305;HTU21D;37392;50.964;6.952;2023-09-08T10:56:16;38.46;37.26
51305;HTU21D;37392;50.964;6.952;2023-09-08T10:58:43;37.49;38.01
51305;HTU21D;37392;50.964;6.952;2023-09-08T11:01:17;36.69;39.77
51305;HTU21D;37392;50.964;6.952;2023-09-08T11:03:45;35.88;41.18
51305;HTU21D;37392;50.964;6.952;2023-09-08T11:06:15;34.89;43.08
51305;HTU21D;37392;50.964;6.952;2023-09-08T11:08:42;34.41;43.84
51305;HTU21D;37392;50.964;6.952;2023-09-08T11:11:15;33.90;44.33
51305;HTU21D;37392;50.964;6.952;2023-09-08T11:13:41;33.26;46.12
51305;HTU21D;37392;50.964;6.952;2023-09-08T11:16:10;33.04;46.58
51305;HTU21D;37392;50.964;6.952;2023-09-08T11:18:36;32.81;47.22
51305;HTU21D;37392;50.964;6.952;2023-09-08T11:21:02;32.70;47.62
51305;HTU21D;37392;50.964;6.952;2023-09-08T11:23:28;32.55;47.63
51305;HTU21D;37392;50.964;6.952;2023-09-08T11:25:54;32.40;47.97
51305;HTU21D;37392;50.964;6.952;2023-09-08T11:28:23;32.28;47.71
51305;HTU21D;37392;50.964;6.952;2023-09-08T11:30:49;32.27;48.18
51305;HTU21D;37392;50.964;6.952;2023-09-08T11:33:16;32.23;48.15
51305;HTU21D;37392;50.964;6.952;2023-09-08T11:35:42;31.96;48.97
51305;HTU21D;37392;50.964;6.952;2023-09-08T11:38:10;31.86;49.11
51305;HTU21D;37392;50.964;6.952;2023-09-08T11:40:36;31.78;49.53
51305;HTU21D;37392;50.964;6.952;2023-09-08T11:43:02;31.82;48.57
51305;HTU21D;37392;50.964;6.952;2023-09-08T11:45:28;31.85;48.64
51305;HTU21D;37392;50.964;6.952;2023-09-08T11:47:55;31.78;49.34
51305;HTU21D;37392;50.964;6.952;2023-09-08T11:50:21;31.83;49.92
51305;HTU21D;37392;50.964;6.952;2023-09-08T11:52:49;31.69;49.98
51305;HTU21D;37392;50.964;6.952;2023-09-08T11:55:15;31.69;50.25
51305;HTU21D;37392;50.964;6.952;2023-09-08T11:57:42;31.71;49.87
51305;HTU21D;37392;50.964;6.952;2023-09-08T12:00:09;31.36;50.96
51305;HTU21D;37392;50.964;6.952;2023-09-08T12:02:39;31.20;51.69
51305;HTU21D;37392;50.964;6.952;2023-09-08T12:05:05;31.20;51.94
51305;HTU21D;37392;50.964;6.952;2023-09-08T12:07:31;31.22;51.56
51305;HTU21D;37392;50.964;6.952;2023-09-08T12:09:56;31.16;51.88
51305;HTU21D;37392;50.964;6.952;2023-09-08T12:12:24;31.09;51.54
51305;HTU21D;37392;50.964;6.952;2023-09-08T12:14:50;30.93;51.96
51305;HTU21D;37392;50.964;6.952;2023-09-08T12:17:16;30.89;52.04
51305;HTU21D;37392;50.964;6.952;2023-09-08T12:19:42;30.97;52.28
51305;HTU21D;37392;50.964;6.952;2023-09-08T12:22:08;31.00;51.85
51305;HTU21D;37392;50.964;6.952;2023-09-08T12:24:46;30.94;52.07
51305;HTU21D;37392;50.964;6.952;2023-09-08T12:27:18;30.87;51.84
51305;HTU21D;37392;50.964;6.952;2023-09-08T12:29:56;30.74;52.03
51305;HTU21D;37392;50.964;6.952;2023-09-08T12:32:23;30.59;52.17
51305;HTU21D;37392;50.964;6.952;2023-09-08T12:34:51;30.57;52.56
51305;HTU21D;37392;50.964;6.952;2023-09-08T12:37:24;30.69;52.44
51305;HTU21D;37392;50.964;6.952;2023-09-08T12:39:52;30.78;51.82
51305;HTU21D;37392;50.964;6.952;2023-09-08T12:42:18;30.69;51.55
51305;HTU21D;37392;50.964;6.952;2023-09-08T12:44:44;30.62;51.24
51305;HTU21D;37392;50.964;6.952;2023-09-08T12:47:10;30.52;51.27
51305;HTU21D;37392;50.964;6.952;2023-09-08T12:49:37;30.51;52.12
51305;HTU21D;37392;50.964;6.952;2023-09-08T12:52:02;30.57;52.62
51305;HTU21D;37392;50.964;6.952;2023-09-08T12:54:28;30.44;52.65
51305;HTU21D;37392;50.964;6.952;2023-09-08T12:56:54;30.39;52.85
51305;HTU21D;37392;50.964;6.952;2023-09-08T12:59:19;30.48;52.04
51305;HTU21D;37392;50.964;6.952;2023-09-08T13:01:45;30.51;52.04
51305;HTU21D;37392;50.964;6.952;2023-09-08T13:04:10;30.60;51.57
51305;HTU21D;37392;50.964;6.952;2023-09-08T13:06:35;30.68;51.33
51305;HTU21D;37392;50.964;6.952;2023-09-08T13:09:01;30.66;51.65
51305;HTU21D;37392;50.964;6.952;2023-09-08T13:11:26;30.62;52.31
51305;HTU21D;37392;50.964;6.952;2023-09-08T13:13:53;30.55;52.30
51305;HTU21D;37392;50.964;6.952;2023-09-08T13:16:18;30.53;52.43
51305;HTU21D;37392;50.964;6.952;2023-09-08T13:18:44;30.56;52.14
51305;HTU21D;37392;50.964;6.952;2023-09-08T13:21:10;30.56;52.48
51305;HTU21D;37392;50.964;6.952;2023-09-08T13:23:36;30.50;52.10
51305;HTU21D;37392;50.964;6.952;2023-09-08T13:26:02;30.49;52.38
51305;HTU21D;37392;50.964;6.952;2023-09-08T13:28:27;30.51;52.55
51305;HTU21D;37392;50.964;6.952;2023-09-08T13:30:52;30.46;52.26
51305;HTU21D;37392;50.964;6.952;2023-09-08T13:33:18;30.39;52.16
51305;HTU21D;37392;50.964;6.952;2023-09-08T13:35:43;30.37;52.67
51305;HTU21D;37392;50.964;6.952;2023-09-08T13:38:09;30.38;52.59
51305;HTU21D;37392;50.964;6.952;2023-09-08T13:40:34;30.32;52.69
51305;HTU21D;37392;50.964;6.952;2023-09-08T13:42:59;30.30;52.74
51305;HTU21D;37392;50.964;6.952;2023-09-08T13:45:25;30.30;52.60
51305;HTU21D;37392;50.964;6.952;2023-09-08T13:47:51;30.23;52.32
51305;HTU21D;37392;50.964;6.952;2023-09-08T13:50:16;30.20;52.61
51305;HTU21D;37392;50.964;6.952;2023-09-08T13:52:42;30.17;52.42
51305;HTU21D;37392;50.964;6.952;2023-09-08T13:55:08;30.20;52.69
51305;HTU21D;37392;50.964;6.952;2023-09-08T13:57:35;30.17;52.32
51305;HTU21D;37392;50.964;6.952;2023-09-08T14:00:01;30.17;52.78
51305;HTU21D;37392;50.964;6.952;2023-09-08T14:02:27;30.22;52.46
51305;HTU21D;37392;50.964;6.952;2023-09-08T14:04:53;30.21;52.00
51305;HTU21D;37392;50.964;6.952;2023-09-08T14:07:18;30.18;51.81
51305;HTU21D;37392;50.964;6.952;2023-09-08T14:09:44;30.15;52.33
51305;HTU21D;37392;50.964;6.952;2023-09-08T14:12:09;30.12;52.14
51305;HTU21D;37392;50.964;6.952;2023-09-08T14:14:34;30.17;52.18
51305;HTU21D;37392;50.964;6.952;2023-09-08T14:17:00;30.25;52.27
51305;HTU21D;37392;50.964;6.952;2023-09-08T14:19:25;30.23;52.11
51305;HTU21D;37392;50.964;6.952;2023-09-08T14:21:51;30.18;52.07
51305;HTU21D;37392;50.964;6.952;2023-09-08T14:24:16;30.15;52.12
51305;HTU21D;37392;50.964;6.952;2023-09-08T14:26:41;30.17;52.33
51305;HTU21D;37392;50.964;6.952;2023-09-08T14:29:07;30.19;52.28
51305;HTU21D;37392;50.964;6.952;2023-09-08T14:31:32;30.19;52.05
51305;HTU21D;37392;50.964;6.952;2023-09-08T14:33:59;30.16;52.04
51305;HTU21D;37392;50.964;6.952;2023-09-08T14:36:25;30.18;52.22
51305;HTU21D;37392;50.964;6.952;2023-09-08T14:38:51;30.15;52.35
51305;HTU21D;37392;50.964;6.952;2023-09-08T14:41:16;30.12;52.44
51305;HTU21D;37392;50.964;6.952;2023-09-08T14:43:42;30.15;52.52
51305;HTU21D;37392;50.964;6.952;2023-09-08T14:46:07;30.15;52.37
51305;HTU21D;37392;50.964;6.952;2023-09-08T14:48:33;30.07;52.20
51305;HTU21D;37392;50.964;6.952;2023-09-08T14:50:59;30.05;52.35
51305;HTU21D;37392;50.964;6.952;2023-09-08T14:53:24;30.01;52.33
51305;HTU21D;37392;50.964;6.952;2023-09-08T14:55:50;29.96;52.80
51305;HTU21D;37392;50.964;6.952;2023-09-08T14:58:16;29.92;52.87
51305;HTU21D;37392;50.964;6.952;2023-09-08T15:00:41;29.91;53.05
51305;HTU21D;37392;50.964;6.952;2023-09-08T15:03:07;29.96;53.11
51305;HTU21D;37392;50.964;6.952;2023-09-08T15:05:33;29.94;52.94
51305;HTU21D;37392;50.964;6.952;2023-09-08T15:07:59;29.89;53.04
51305;HTU21D;37392;50.964;6.952;2023-09-08T15:10:25;29.94;53.04
51305;HTU21D;37392;50.964;6.952;2023-09-08T15:12:50;29.93;53.06
51305;HTU21D;37392;50.964;6.952;2023-09-08T15:15:16;29.90;53.34